sensor_id;sensor_type;location;lat;lon;timestamp;pressure;altitude;pressure_sealevel;temperature;humidity
75089;BME280;63673;49.928;8.150;2023-12-04T00:00:14;992.89;;;-3.36;100
75089;BME280;63673;49.928;8.150;2023-12-04T00:00:45;992.89;;;-3.36;100
75089;BME280;63673;49.928;8.150;2023-12-04T00:01:16;992.88;;;-3.37;100
75089;BME280;63673;49.928;8.150;2023-12-04T00:01:47;992.88;;;-3.37;100
75089;BME280;63673;49.928;8.150;2023-12-04T00:02:18;992.86;;;-3.39;100
75089;BME280;63673;49.928;8.150;2023-12-04T00:02:49;992.86;;;-3.39;100
75089;BME280;63673;49.928;8.150;2023-12-04T00:03:19;992.86;;;-3.4;100
75089;BME280;63673;49.928;8.150;2023-12-04T00:03:50;992.86;;;-3.4;100
75089;BME280;63673;49.928;8.150;2023-12-04T00:04:25;992.8;;;-3.4;100
75089;BME280;63673;49.928;8.150;2023-12-04T00:05:28;992.74;;;-3.43;100
75089;BME280;63673;49.928;8.150;2023-12-04T00:06:30;992.73;;;-3.44;100
75089;BME280;63673;49.928;8.150;2023-12-04T00:07:31;992.71;;;-3.43;100
75089;BME280;63673;49.928;8.150;2023-12-04T00:08:33;992.72;;;-3.45;100
75089;BME280;63673;49.928;8.150;2023-12-04T00:09:35;992.74;;;-3.46;100
75089;BME280;63673;49.928;8.150;2023-12-04T00:10:37;992.75;;;-3.46;100
75089;BME280;63673;49.928;8.150;2023-12-04T00:11:38;992.73;;;-3.46;100
75089;BME280;63673;49.928;8.150;2023-12-04T00:12:40;992.72;;;-3.47;100
75089;BME280;63673;49.928;8.150;2023-12-04T00:13:42;992.81;;;-3.48;100
75089;BME280;63673;49.928;8.150;2023-12-04T00:14:43;992.72;;;-3.49;100
75089;BME280;63673;49.928;8.150;2023-12-04T00:15:45;992.73;;;-3.49;100
75089;BME280;63673;49.928;8.150;2023-12-04T00:16:47;992.66;;;-3.51;100
75089;BME280;63673;49.928;8.150;2023-12-04T00:17:49;992.69;;;-3.53;100
75089;BME280;63673;49.928;8.150;2023-12-04T00:18:50;992.72;;;-3.54;100
75089;BME280;63673;49.928;8.150;2023-12-04T00:19:52;992.66;;;-3.56;100
75089;BME280;63673;49.928;8.150;2023-12-04T00:20:54;992.68;;;-3.58;100
75089;BME280;63673;49.928;8.150;2023-12-04T00:21:56;992.64;;;-3.59;100
75089;BME280;63673;49.928;8.150;2023-12-04T00:22:57;992.62;;;-3.6;100
75089;BME280;63673;49.928;8.150;2023-12-04T00:23:59;992.61;;;-3.61;100
75089;BME280;63673;49.928;8.150;2023-12-04T00:25:01;992.6;;;-3.63;100
75089;BME280;63673;49.928;8.150;2023-12-04T00:26:03;992.59;;;-3.65;100
75089;BME280;63673;49.928;8.150;2023-12-04T00:27:04;992.58;;;-3.66;100
75089;BME280;63673;49.928;8.150;2023-12-04T00:28:06;992.53;;;-3.68;100
75089;BME280;63673;49.928;8.150;2023-12-04T00:29:08;992.57;;;-3.68;100
75089;BME280;63673;49.928;8.150;2023-12-04T00:30:10;992.56;;;-3.69;100
75089;BME280;63673;49.928;8.150;2023-12-04T00:31:11;992.46;;;-3.7;100
75089;BME280;63673;49.928;8.150;2023-12-04T00:32:13;992.53;;;-3.72;100
75089;BME280;63673;49.928;8.150;2023-12-04T00:33:15;992.5;;;-3.72;100
75089;BME280;63673;49.928;8.150;2023-12-04T00:34:16;992.46;;;-3.74;100
75089;BME280;63673;49.928;8.150;2023-12-04T00:35:18;992.49;;;-3.76;100
75089;BME280;63673;49.928;8.150;2023-12-04T00:36:20;992.45;;;-3.77;100
75089;BME280;63673;49.928;8.150;2023-12-04T00:37:23;992.4;;;-3.79;100
75089;BME280;63673;49.928;8.150;2023-12-04T00:39:30;992.4;;;-3.79;100
75089;BME280;63673;49.928;8.150;2023-12-04T00:40:30;992.33;;;-3.79;100
75089;BME280;63673;49.928;8.150;2023-12-04T00:41:43;992.34;;;-3.82;100
75089;BME280;63673;49.928;8.150;2023-12-04T00:43:37;992.31;;;-3.84;100
75089;BME280;63673;49.928;8.150;2023-12-04T00:44:47;992.27;;;-3.84;100
75089;BME280;63673;49.928;8.150;2023-12-04T00:45:47;992.26;;;-3.85;100
75089;BME280;63673;49.928;8.150;2023-12-04T00:46:50;992.24;;;-3.88;100
75089;BME280;63673;49.928;8.150;2023-12-04T00:47:59;992.2;;;-3.88;100
75089;BME280;63673;49.928;8.150;2023-12-04T00:49:24;992.11;;;-3.9;100
75089;BME280;63673;49.928;8.150;2023-12-04T00:50:27;992.13;;;-3.91;100
75089;BME280;63673;49.928;8.150;2023-12-04T00:51:29;992.11;;;-3.93;100
75089;BME280;63673;49.928;8.150;2023-12-04T00:52:30;992.07;;;-3.92;100
75089;BME280;63673;49.928;8.150;2023-12-04T00:53:32;992.04;;;-3.94;100
75089;BME280;63673;49.928;8.150;2023-12-04T00:54:34;992.07;;;-3.94;100
75089;BME280;63673;49.928;8.150;2023-12-04T00:55:35;992.06;;;-3.95;100
75089;BME280;63673;49.928;8.150;2023-12-04T00:56:37;992.06;;;-3.95;100
75089;BME280;63673;49.928;8.150;2023-12-04T00:57:39;992.07;;;-3.95;100
75089;BME280;63673;49.928;8.150;2023-12-04T00:58:41;992.1;;;-3.97;100
75089;BME280;63673;49.928;8.150;2023-12-04T00:59:43;992.11;;;-3.96;100
75089;BME280;63673;49.928;8.150;2023-12-04T01:00:46;992.11;;;-3.97;100
75089;BME280;63673;49.928;8.150;2023-12-04T01:01:46;992.11;;;-3.99;100
75089;BME280;63673;49.928;8.150;2023-12-04T01:02:48;992.07;;;-3.99;100
75089;BME280;63673;49.928;8.150;2023-12-04T01:03:49;992.09;;;-4;100
75089;BME280;63673;49.928;8.150;2023-12-04T01:04:51;992.09;;;-4.02;100
75089;BME280;63673;49.928;8.150;2023-12-04T01:05:53;992.07;;;-4.02;100
75089;BME280;63673;49.928;8.150;2023-12-04T01:06:55;992.07;;;-4.03;100
75089;BME280;63673;49.928;8.150;2023-12-04T01:07:56;992.12;;;-4.03;100
75089;BME280;63673;49.928;8.150;2023-12-04T01:08:58;992.1;;;-4.03;100
75089;BME280;63673;49.928;8.150;2023-12-04T01:10:00;992.12;;;-4.04;100
75089;BME280;63673;49.928;8.150;2023-12-04T01:11:02;992.11;;;-4.05;100
75089;BME280;63673;49.928;8.150;2023-12-04T01:12:03;992.1;;;-4.04;100
75089;BME280;63673;49.928;8.150;2023-12-04T01:13:05;992.05;;;-4.06;100
75089;BME280;63673;49.928;8.150;2023-12-04T01:14:07;992.01;;;-4.06;100
75089;BME280;63673;49.928;8.150;2023-12-04T01:15:08;992;;;-4.06;100
75089;BME280;63673;49.928;8.150;2023-12-04T01:16:10;991.8;;;-4.07;100
75089;BME280;63673;49.928;8.150;2023-12-04T01:17:12;991.93;;;-4.08;100
75089;BME280;63673;49.928;8.150;2023-12-04T01:18:14;991.9;;;-4.07;100
75089;BME280;63673;49.928;8.150;2023-12-04T01:19:15;991.86;;;-4.08;100
75089;BME280;63673;49.928;8.150;2023-12-04T01:20:17;991.82;;;-4.08;100
75089;BME280;63673;49.928;8.150;2023-12-04T01:21:19;991.92;;;-4.09;100
75089;BME280;63673;49.928;8.150;2023-12-04T01:22:21;991.92;;;-4.08;100
75089;BME280;63673;49.928;8.150;2023-12-04T01:23:22;991.94;;;-4.08;100
75089;BME280;63673;49.928;8.150;2023-12-04T01:24:24;991.96;;;-4.09;100
75089;BME280;63673;49.928;8.150;2023-12-04T01:25:26;991.93;;;-4.09;100
75089;BME280;63673;49.928;8.150;2023-12-04T01:26:27;991.95;;;-4.09;100
75089;BME280;63673;49.928;8.150;2023-12-04T01:27:29;991.96;;;-4.09;100
75089;BME280;63673;49.928;8.150;2023-12-04T01:28:31;991.97;;;-4.08;100
75089;BME280;63673;49.928;8.150;2023-12-04T01:29:33;991.92;;;-4.1;100
75089;BME280;63673;49.928;8.150;2023-12-04T01:30:34;991.95;;;-4.1;100
75089;BME280;63673;49.928;8.150;2023-12-04T01:31:36;991.89;;;-4.11;100
75089;BME280;63673;49.928;8.150;2023-12-04T01:32:38;991.95;;;-4.09;100
75089;BME280;63673;49.928;8.150;2023-12-04T01:33:40;991.96;;;-4.1;100
75089;BME280;63673;49.928;8.150;2023-12-04T01:34:41;991.95;;;-4.11;100
75089;BME280;63673;49.928;8.150;2023-12-04T01:35:43;991.91;;;-4.11;100
75089;BME280;63673;49.928;8.150;2023-12-04T01:36:45;991.89;;;-4.11;100
75089;BME280;63673;49.928;8.150;2023-12-04T01:37:47;991.96;;;-4.11;100
75089;BME280;63673;49.928;8.150;2023-12-04T01:38:48;992;;;-4.12;100
75089;BME280;63673;49.928;8.150;2023-12-04T01:39:50;991.93;;;-4.12;100
75089;BME280;63673;49.928;8.150;2023-12-04T01:40:52;991.95;;;-4.12;100
75089;BME280;63673;49.928;8.150;2023-12-04T01:41:53;991.97;;;-4.12;100
75089;BME280;63673;49.928;8.150;2023-12-04T01:42:55;991.97;;;-4.14;100
75089;BME280;63673;49.928;8.150;2023-12-04T01:43:57;991.93;;;-4.13;100
75089;BME280;63673;49.928;8.150;2023-12-04T01:44:59;991.97;;;-4.13;100
75089;BME280;63673;49.928;8.150;2023-12-04T01:46:01;991.97;;;-4.14;100
75089;BME280;63673;49.928;8.150;2023-12-04T01:47:03;991.95;;;-4.14;100
75089;BME280;63673;49.928;8.150;2023-12-04T01:48:04;991.96;;;-4.14;100
75089;BME280;63673;49.928;8.150;2023-12-04T01:49:06;991.96;;;-4.16;100
75089;BME280;63673;49.928;8.150;2023-12-04T01:50:08;991.91;;;-4.16;100
75089;BME280;63673;49.928;8.150;2023-12-04T01:51:09;991.9;;;-4.16;100
75089;BME280;63673;49.928;8.150;2023-12-04T01:52:11;991.87;;;-4.17;100
75089;BME280;63673;49.928;8.150;2023-12-04T01:53:13;991.9;;;-4.18;100
75089;BME280;63673;49.928;8.150;2023-12-04T01:54:14;991.92;;;-4.18;100
75089;BME280;63673;49.928;8.150;2023-12-04T01:55:16;991.89;;;-4.18;100
75089;BME280;63673;49.928;8.150;2023-12-04T01:56:18;991.92;;;-4.2;100
75089;BME280;63673;49.928;8.150;2023-12-04T01:57:19;991.88;;;-4.2;100
75089;BME280;63673;49.928;8.150;2023-12-04T01:58:21;991.85;;;-4.2;100
75089;BME280;63673;49.928;8.150;2023-12-04T01:59:23;991.88;;;-4.21;100
75089;BME280;63673;49.928;8.150;2023-12-04T02:00:26;991.84;;;-4.21;100
75089;BME280;63673;49.928;8.150;2023-12-04T02:01:26;991.84;;;-4.21;100
75089;BME280;63673;49.928;8.150;2023-12-04T02:02:28;991.88;;;-4.21;100
75089;BME280;63673;49.928;8.150;2023-12-04T02:03:30;991.85;;;-4.22;100
75089;BME280;63673;49.928;8.150;2023-12-04T02:04:32;991.85;;;-4.24;100
75089;BME280;63673;49.928;8.150;2023-12-04T02:05:33;991.82;;;-4.22;100
75089;BME280;63673;49.928;8.150;2023-12-04T02:06:35;991.75;;;-4.23;100
75089;BME280;63673;49.928;8.150;2023-12-04T02:07:37;991.77;;;-4.23;100
75089;BME280;63673;49.928;8.150;2023-12-04T02:08:39;991.75;;;-4.24;100
75089;BME280;63673;49.928;8.150;2023-12-04T02:09:40;991.77;;;-4.23;100
75089;BME280;63673;49.928;8.150;2023-12-04T02:10:42;991.72;;;-4.23;100
75089;BME280;63673;49.928;8.150;2023-12-04T02:11:44;991.68;;;-4.24;100
75089;BME280;63673;49.928;8.150;2023-12-04T02:12:45;991.67;;;-4.24;100
75089;BME280;63673;49.928;8.150;2023-12-04T02:17:37;991.68;;;-4.24;100
75089;BME280;63673;49.928;8.150;2023-12-04T02:25:11;991.58;;;-4.24;100
75089;BME280;63673;49.928;8.150;2023-12-04T02:46:03;991.46;;;-4.27;100
75089;BME280;63673;49.928;8.150;2023-12-04T02:47:43;991.12;;;-4.29;100
75089;BME280;63673;49.928;8.150;2023-12-04T02:50:12;991.07;;;-4.3;100
75089;BME280;63673;49.928;8.150;2023-12-04T02:51:14;991.05;;;-4.3;100
75089;BME280;63673;49.928;8.150;2023-12-04T02:52:16;991.03;;;-4.31;100
75089;BME280;63673;49.928;8.150;2023-12-04T02:53:17;990.99;;;-4.31;100
75089;BME280;63673;49.928;8.150;2023-12-04T02:54:19;990.98;;;-4.31;100
75089;BME280;63673;49.928;8.150;2023-12-04T02:55:21;991.04;;;-4.32;100
75089;BME280;63673;49.928;8.150;2023-12-04T02:56:22;990.98;;;-4.32;100
75089;BME280;63673;49.928;8.150;2023-12-04T02:57:24;990.99;;;-4.33;100
75089;BME280;63673;49.928;8.150;2023-12-04T02:58:26;990.98;;;-4.33;100
75089;BME280;63673;49.928;8.150;2023-12-04T02:59:27;990.9;;;-4.34;100
75089;BME280;63673;49.928;8.150;2023-12-04T03:00:44;990.9;;;-4.34;100
75089;BME280;63673;49.928;8.150;2023-12-04T03:01:45;990.8;;;-4.34;100
75089;BME280;63673;49.928;8.150;2023-12-04T03:02:47;990.86;;;-4.36;100
75089;BME280;63673;49.928;8.150;2023-12-04T03:03:48;990.84;;;-4.36;100
75089;BME280;63673;49.928;8.150;2023-12-04T03:04:50;990.84;;;-4.36;100
75089;BME280;63673;49.928;8.150;2023-12-04T03:05:52;990.8;;;-4.37;100
75089;BME280;63673;49.928;8.150;2023-12-04T03:06:54;990.86;;;-4.37;100
75089;BME280;63673;49.928;8.150;2023-12-04T03:07:55;990.77;;;-4.38;100
75089;BME280;63673;49.928;8.150;2023-12-04T03:08:58;990.77;;;-4.38;100
75089;BME280;63673;49.928;8.150;2023-12-04T03:09:59;990.78;;;-4.38;100
75089;BME280;63673;49.928;8.150;2023-12-04T03:11:01;990.79;;;-4.4;100
75089;BME280;63673;49.928;8.150;2023-12-04T03:12:03;990.73;;;-4.41;100
75089;BME280;63673;49.928;8.150;2023-12-04T03:13:04;990.72;;;-4.4;100
75089;BME280;63673;49.928;8.150;2023-12-04T03:14:06;990.79;;;-4.41;100
75089;BME280;63673;49.928;8.150;2023-12-04T03:15:08;990.8;;;-4.4;100
75089;BME280;63673;49.928;8.150;2023-12-04T03:16:14;990.77;;;-4.41;100
75089;BME280;63673;49.928;8.150;2023-12-04T03:17:11;990.66;;;-4.4;100
75089;BME280;63673;49.928;8.150;2023-12-04T03:18:13;990.74;;;-4.41;100
75089;BME280;63673;49.928;8.150;2023-12-04T03:19:14;990.74;;;-4.42;100
75089;BME280;63673;49.928;8.150;2023-12-04T03:20:16;990.78;;;-4.41;100
75089;BME280;63673;49.928;8.150;2023-12-04T03:21:18;990.79;;;-4.43;100
75089;BME280;63673;49.928;8.150;2023-12-04T03:22:20;990.76;;;-4.43;100
75089;BME280;63673;49.928;8.150;2023-12-04T03:23:21;990.75;;;-4.45;100
75089;BME280;63673;49.928;8.150;2023-12-04T03:24:23;990.74;;;-4.43;100
75089;BME280;63673;49.928;8.150;2023-12-04T03:25:25;990.67;;;-4.44;100
75089;BME280;63673;49.928;8.150;2023-12-04T03:26:27;990.71;;;-4.46;100
75089;BME280;63673;49.928;8.150;2023-12-04T03:27:28;990.61;;;-4.46;100
75089;BME280;63673;49.928;8.150;2023-12-04T03:28:30;990.62;;;-4.46;100
75089;BME280;63673;49.928;8.150;2023-12-04T03:29:32;990.56;;;-4.47;100
75089;BME280;63673;49.928;8.150;2023-12-04T03:30:34;990.59;;;-4.46;100
75089;BME280;63673;49.928;8.150;2023-12-04T03:31:35;990.56;;;-4.48;100
75089;BME280;63673;49.928;8.150;2023-12-04T03:32:37;990.49;;;-4.48;100
75089;BME280;63673;49.928;8.150;2023-12-04T03:33:39;990.54;;;-4.48;100
75089;BME280;63673;49.928;8.150;2023-12-04T03:34:40;990.5;;;-4.5;100
75089;BME280;63673;49.928;8.150;2023-12-04T03:35:44;990.49;;;-4.49;100
75089;BME280;63673;49.928;8.150;2023-12-04T03:36:49;990.47;;;-4.48;100
75089;BME280;63673;49.928;8.150;2023-12-04T03:37:51;990.48;;;-4.5;100
75089;BME280;63673;49.928;8.150;2023-12-04T03:38:53;990.42;;;-4.51;100
75089;BME280;63673;49.928;8.150;2023-12-04T03:39:54;990.42;;;-4.52;100
75089;BME280;63673;49.928;8.150;2023-12-04T03:40:56;990.33;;;-4.53;100
75089;BME280;63673;49.928;8.150;2023-12-04T03:41:58;990.24;;;-4.54;100
75089;BME280;63673;49.928;8.150;2023-12-04T03:43:00;990.23;;;-4.53;100
75089;BME280;63673;49.928;8.150;2023-12-04T03:44:01;990.27;;;-4.53;100
75089;BME280;63673;49.928;8.150;2023-12-04T03:45:03;990.27;;;-4.53;100
75089;BME280;63673;49.928;8.150;2023-12-04T03:46:05;990.3;;;-4.56;100
75089;BME280;63673;49.928;8.150;2023-12-04T03:47:06;990.31;;;-4.54;100
75089;BME280;63673;49.928;8.150;2023-12-04T03:48:08;990.35;;;-4.56;100
75089;BME280;63673;49.928;8.150;2023-12-04T03:49:10;990.37;;;-4.56;100
75089;BME280;63673;49.928;8.150;2023-12-04T03:50:12;990.28;;;-4.56;100
75089;BME280;63673;49.928;8.150;2023-12-04T03:51:13;990.36;;;-4.57;100
75089;BME280;63673;49.928;8.150;2023-12-04T03:52:15;990.24;;;-4.57;100
75089;BME280;63673;49.928;8.150;2023-12-04T03:53:17;990.33;;;-4.57;100
75089;BME280;63673;49.928;8.150;2023-12-04T03:54:19;990.3;;;-4.57;100
75089;BME280;63673;49.928;8.150;2023-12-04T03:55:20;990.36;;;-4.57;100
75089;BME280;63673;49.928;8.150;2023-12-04T03:56:22;990.38;;;-4.56;100
75089;BME280;63673;49.928;8.150;2023-12-04T03:57:24;990.41;;;-4.56;100
75089;BME280;63673;49.928;8.150;2023-12-04T03:58:26;990.42;;;-4.56;100
75089;BME280;63673;49.928;8.150;2023-12-04T03:59:27;990.38;;;-4.57;100
75089;BME280;63673;49.928;8.150;2023-12-04T04:00:58;990.43;;;-4.56;100
75089;BME280;63673;49.928;8.150;2023-12-04T04:02:00;990.41;;;-4.56;100
75089;BME280;63673;49.928;8.150;2023-12-04T04:03:02;990.37;;;-4.57;100
75089;BME280;63673;49.928;8.150;2023-12-04T04:04:04;990.33;;;-4.57;100
75089;BME280;63673;49.928;8.150;2023-12-04T04:05:05;990.4;;;-4.58;100
75089;BME280;63673;49.928;8.150;2023-12-04T04:06:07;990.35;;;-4.57;100
75089;BME280;63673;49.928;8.150;2023-12-04T04:07:09;990.39;;;-4.56;100
75089;BME280;63673;49.928;8.150;2023-12-04T04:08:11;990.41;;;-4.57;100
75089;BME280;63673;49.928;8.150;2023-12-04T04:09:12;990.36;;;-4.57;100
75089;BME280;63673;49.928;8.150;2023-12-04T04:10:14;990.33;;;-4.57;100
75089;BME280;63673;49.928;8.150;2023-12-04T04:11:16;990.39;;;-4.57;100
75089;BME280;63673;49.928;8.150;2023-12-04T04:12:17;990.38;;;-4.58;100
75089;BME280;63673;49.928;8.150;2023-12-04T04:13:19;990.42;;;-4.57;100
75089;BME280;63673;49.928;8.150;2023-12-04T04:14:21;990.45;;;-4.57;100
75089;BME280;63673;49.928;8.150;2023-12-04T04:15:24;990.49;;;-4.57;100
75089;BME280;63673;49.928;8.150;2023-12-04T04:16:24;990.42;;;-4.56;100
75089;BME280;63673;49.928;8.150;2023-12-04T04:17:26;990.49;;;-4.54;100
75089;BME280;63673;49.928;8.150;2023-12-04T04:18:28;990.52;;;-4.56;100
75089;BME280;63673;49.928;8.150;2023-12-04T04:19:30;990.5;;;-4.53;100
75089;BME280;63673;49.928;8.150;2023-12-04T04:20:31;990.57;;;-4.54;100
75089;BME280;63673;49.928;8.150;2023-12-04T04:21:33;990.36;;;-4.55;100
75089;BME280;63673;49.928;8.150;2023-12-04T04:22:35;990.48;;;-4.55;100
75089;BME280;63673;49.928;8.150;2023-12-04T04:23:37;990.51;;;-4.55;100
75089;BME280;63673;49.928;8.150;2023-12-04T04:24:38;990.46;;;-4.54;100
75089;BME280;63673;49.928;8.150;2023-12-04T04:25:40;990.43;;;-4.55;100
75089;BME280;63673;49.928;8.150;2023-12-04T04:26:42;990.45;;;-4.54;100
75089;BME280;63673;49.928;8.150;2023-12-04T04:27:43;990.43;;;-4.54;100
75089;BME280;63673;49.928;8.150;2023-12-04T04:28:45;990.41;;;-4.56;100
75089;BME280;63673;49.928;8.150;2023-12-04T04:29:47;990.32;;;-4.55;100
75089;BME280;63673;49.928;8.150;2023-12-04T04:30:49;990.26;;;-4.56;100
75089;BME280;63673;49.928;8.150;2023-12-04T04:31:50;990.28;;;-4.55;100
75089;BME280;63673;49.928;8.150;2023-12-04T04:32:52;990.17;;;-4.56;100
75089;BME280;63673;49.928;8.150;2023-12-04T04:33:54;990.24;;;-4.56;100
75089;BME280;63673;49.928;8.150;2023-12-04T04:34:56;990.24;;;-4.54;100
75089;BME280;63673;49.928;8.150;2023-12-04T04:35:57;990.2;;;-4.55;100
75089;BME280;63673;49.928;8.150;2023-12-04T04:36:59;990.17;;;-4.55;100
75089;BME280;63673;49.928;8.150;2023-12-04T04:38:01;990.08;;;-4.54;100
75089;BME280;63673;49.928;8.150;2023-12-04T04:39:04;990.16;;;-4.53;100
75089;BME280;63673;49.928;8.150;2023-12-04T04:40:05;990.2;;;-4.55;100
75089;BME280;63673;49.928;8.150;2023-12-04T04:41:05;990.18;;;-4.55;100
75089;BME280;63673;49.928;8.150;2023-12-04T04:42:08;990.17;;;-4.57;100
75089;BME280;63673;49.928;8.150;2023-12-04T04:43:10;990.22;;;-4.56;100
75089;BME280;63673;49.928;8.150;2023-12-04T04:44:11;990.22;;;-4.58;100
75089;BME280;63673;49.928;8.150;2023-12-04T04:45:13;990.26;;;-4.58;100
75089;BME280;63673;49.928;8.150;2023-12-04T04:46:15;990.23;;;-4.59;100
75089;BME280;63673;49.928;8.150;2023-12-04T04:47:16;990.26;;;-4.59;100
75089;BME280;63673;49.928;8.150;2023-12-04T04:48:18;990.26;;;-4.59;100
75089;BME280;63673;49.928;8.150;2023-12-04T04:49:20;990.23;;;-4.6;100
75089;BME280;63673;49.928;8.150;2023-12-04T04:50:22;990.27;;;-4.6;100
75089;BME280;63673;49.928;8.150;2023-12-04T04:51:23;990.21;;;-4.61;100
75089;BME280;63673;49.928;8.150;2023-12-04T04:52:25;990.21;;;-4.6;100
75089;BME280;63673;49.928;8.150;2023-12-04T04:53:27;990.21;;;-4.61;100
75089;BME280;63673;49.928;8.150;2023-12-04T04:54:30;990.18;;;-4.6;100
75089;BME280;63673;49.928;8.150;2023-12-04T04:55:30;990.22;;;-4.62;100
75089;BME280;63673;49.928;8.150;2023-12-04T04:56:32;990.22;;;-4.61;100
75089;BME280;63673;49.928;8.150;2023-12-04T04:57:34;990.18;;;-4.61;100
75089;BME280;63673;49.928;8.150;2023-12-04T04:58:36;990.18;;;-4.62;100
75089;BME280;63673;49.928;8.150;2023-12-04T04:59:37;990.2;;;-4.6;100
75089;BME280;63673;49.928;8.150;2023-12-04T05:01:05;990.15;;;-4.6;100
75089;BME280;63673;49.928;8.150;2023-12-04T05:02:06;990.12;;;-4.61;100
75089;BME280;63673;49.928;8.150;2023-12-04T05:03:08;990.13;;;-4.62;100
75089;BME280;63673;49.928;8.150;2023-12-04T05:04:10;990.09;;;-4.62;100
75089;BME280;63673;49.928;8.150;2023-12-04T05:05:11;990.09;;;-4.61;100
75089;BME280;63673;49.928;8.150;2023-12-04T05:06:13;990.06;;;-4.62;100
75089;BME280;63673;49.928;8.150;2023-12-04T05:07:15;990.06;;;-4.61;100
75089;BME280;63673;49.928;8.150;2023-12-04T05:08:17;989.98;;;-4.62;100
75089;BME280;63673;49.928;8.150;2023-12-04T05:09:18;989.99;;;-4.63;100
75089;BME280;63673;49.928;8.150;2023-12-04T05:10:20;989.99;;;-4.63;100
75089;BME280;63673;49.928;8.150;2023-12-04T05:11:32;989.93;;;-4.63;100
75089;BME280;63673;49.928;8.150;2023-12-04T05:12:34;989.94;;;-4.64;100
75089;BME280;63673;49.928;8.150;2023-12-04T05:13:36;989.9;;;-4.64;100
75089;BME280;63673;49.928;8.150;2023-12-04T05:14:37;989.85;;;-4.65;100
75089;BME280;63673;49.928;8.150;2023-12-04T05:15:39;989.86;;;-4.64;100
75089;BME280;63673;49.928;8.150;2023-12-04T05:16:41;989.75;;;-4.65;100
75089;BME280;63673;49.928;8.150;2023-12-04T05:17:43;989.8;;;-4.64;100
75089;BME280;63673;49.928;8.150;2023-12-04T05:18:44;989.77;;;-4.64;100
75089;BME280;63673;49.928;8.150;2023-12-04T05:19:46;989.82;;;-4.65;100
75089;BME280;63673;49.928;8.150;2023-12-04T05:20:48;989.8;;;-4.66;100
75089;BME280;63673;49.928;8.150;2023-12-04T05:21:49;989.82;;;-4.66;100
75089;BME280;63673;49.928;8.150;2023-12-04T05:22:51;989.84;;;-4.66;100
75089;BME280;63673;49.928;8.150;2023-12-04T05:23:53;989.79;;;-4.66;100
75089;BME280;63673;49.928;8.150;2023-12-04T05:24:55;989.8;;;-4.68;100
75089;BME280;63673;49.928;8.150;2023-12-04T05:25:56;989.82;;;-4.67;100
75089;BME280;63673;49.928;8.150;2023-12-04T05:26:59;989.77;;;-4.67;100
75089;BME280;63673;49.928;8.150;2023-12-04T05:28:00;989.78;;;-4.67;100
75089;BME280;63673;49.928;8.150;2023-12-04T05:29:02;989.77;;;-4.67;100
75089;BME280;63673;49.928;8.150;2023-12-04T05:30:04;989.74;;;-4.67;100
75089;BME280;63673;49.928;8.150;2023-12-04T05:31:05;989.66;;;-4.67;100
75089;BME280;63673;49.928;8.150;2023-12-04T05:32:14;989.62;;;-4.67;100
75089;BME280;63673;49.928;8.150;2023-12-04T05:33:02;989.62;;;-4.67;100
75089;BME280;63673;49.928;8.150;2023-12-04T05:34:14;989.65;;;-4.65;100
75089;BME280;63673;49.928;8.150;2023-12-04T05:35:16;989.67;;;-4.65;100
75089;BME280;63673;49.928;8.150;2023-12-04T05:36:18;989.66;;;-4.66;100
75089;BME280;63673;49.928;8.150;2023-12-04T05:37:20;989.62;;;-4.65;100
75089;BME280;63673;49.928;8.150;2023-12-04T05:38:26;989.64;;;-4.66;100
75089;BME280;63673;49.928;8.150;2023-12-04T05:40:10;989.64;;;-4.65;100
75089;BME280;63673;49.928;8.150;2023-12-04T05:41:11;989.64;;;-4.65;100
75089;BME280;63673;49.928;8.150;2023-12-04T05:42:13;989.67;;;-4.65;100
75089;BME280;63673;49.928;8.150;2023-12-04T05:43:15;989.72;;;-4.65;100
75089;BME280;63673;49.928;8.150;2023-12-04T05:44:16;989.69;;;-4.65;100
75089;BME280;63673;49.928;8.150;2023-12-04T05:45:18;989.68;;;-4.64;100
75089;BME280;63673;49.928;8.150;2023-12-04T05:46:24;989.72;;;-4.65;100
75089;BME280;63673;49.928;8.150;2023-12-04T05:47:25;989.68;;;-4.64;100
75089;BME280;63673;49.928;8.150;2023-12-04T05:48:26;989.68;;;-4.65;100
75089;BME280;63673;49.928;8.150;2023-12-04T05:49:28;989.63;;;-4.63;100
75089;BME280;63673;49.928;8.150;2023-12-04T05:50:29;989.6;;;-4.64;100
75089;BME280;63673;49.928;8.150;2023-12-04T05:51:55;989.62;;;-4.63;100
75089;BME280;63673;49.928;8.150;2023-12-04T05:52:56;989.53;;;-4.63;100
75089;BME280;63673;49.928;8.150;2023-12-04T05:53:58;989.51;;;-4.64;100
75089;BME280;63673;49.928;8.150;2023-12-04T05:56:01;989.54;;;-4.63;100
75089;BME280;63673;49.928;8.150;2023-12-04T05:57:03;989.49;;;-4.63;100
75089;BME280;63673;49.928;8.150;2023-12-04T05:58:21;989.47;;;-4.62;100
75089;BME280;63673;49.928;8.150;2023-12-04T06:00:04;989.54;;;-4.62;100
75089;BME280;63673;49.928;8.150;2023-12-04T06:01:35;989.53;;;-4.61;100
75089;BME280;63673;49.928;8.150;2023-12-04T06:02:37;989.48;;;-4.63;100
75089;BME280;63673;49.928;8.150;2023-12-04T06:03:39;989.48;;;-4.62;100
75089;BME280;63673;49.928;8.150;2023-12-04T06:04:40;989.48;;;-4.62;100
75089;BME280;63673;49.928;8.150;2023-12-04T06:05:42;989.48;;;-4.6;100
75089;BME280;63673;49.928;8.150;2023-12-04T06:06:44;989.41;;;-4.6;100
75089;BME280;63673;49.928;8.150;2023-12-04T06:07:46;989.38;;;-4.6;100
75089;BME280;63673;49.928;8.150;2023-12-04T06:08:47;989.31;;;-4.6;100
75089;BME280;63673;49.928;8.150;2023-12-04T06:09:18;989.31;;;-4.6;100
75089;BME280;63673;49.928;8.150;2023-12-04T06:11:18;989.24;;;-4.6;100
75089;BME280;63673;49.928;8.150;2023-12-04T06:12:18;989.29;;;-4.59;100
75089;BME280;63673;49.928;8.150;2023-12-04T06:13:33;989.28;;;-4.59;100
75089;BME280;63673;49.928;8.150;2023-12-04T06:14:38;989.34;;;-4.58;100
75089;BME280;63673;49.928;8.150;2023-12-04T06:15:53;989.36;;;-4.59;100
75089;BME280;63673;49.928;8.150;2023-12-04T06:17:15;989.34;;;-4.57;100
75089;BME280;63673;49.928;8.150;2023-12-04T06:18:27;989.43;;;-4.57;100
75089;BME280;63673;49.928;8.150;2023-12-04T06:19:29;989.39;;;-4.59;100
75089;BME280;63673;49.928;8.150;2023-12-04T06:20:31;989.33;;;-4.58;100
75089;BME280;63673;49.928;8.150;2023-12-04T06:21:33;989.35;;;-4.58;100
75089;BME280;63673;49.928;8.150;2023-12-04T06:22:46;989.32;;;-4.57;100
75089;BME280;63673;49.928;8.150;2023-12-04T06:23:48;989.34;;;-4.57;100